Dades meteomassalio
Diari Summary for Diciembre 14, 2017 Units:  English    Metric   Both
« Previous Day
Next Day »
Diari Semanal Mensual Anual Personalitzat
  Maxima: Minima: Mijana:
Temperatura: TemperatureC °F 0.0 °F 7.9 °F
Rosada: DewpointC °F -3.6 °F 2.8 °F
Humitat: Humidity % 60 % 70 %
Velocitat del vent: WindSpeedKMH mph 0.0 mph 3.9 mph
Racha vent: WindSpeedGustKMH mph - -
Vent:- - WNW
Pressio: PressurehPa in 1012.8 in -
Pluja: 0.0 in    
Historical Graphs
 
 
Tabular Data for Diciembre 14, 2017
Time Temperature Dew Point Pressure Wind Wind Speed Wind Gust Humidity Rainfall Rate (Hourly) solar Conditions
TemperatureC °F DewpointC °F PressurehPa in Calm     Humidity % HourlyPrecipMM in SolarRadiationWatts/m^2 W/m2 Conditions
00:02 4.4 °F -0.2 °F 1024.9 in Calm     72 % 0.0 in 0.0 W/m2 CLR
00:07 4.4 °F -0.2 °F 1024.9 in Calm     72 % 0.0 in 0.0 W/m2 CLR
00:12 4.4 °F -0.3 °F 1024.9 in Calm     71 % 0.0 in 0.0 W/m2 CLR
00:17 4.4 °F -0.3 °F 1024.9 in Calm     71 % 0.0 in 0.0 W/m2 CLR
00:22 4.4 °F -0.6 °F 1024.6 in Calm     70 % 0.0 in 0.0 W/m2 CLR
00:27 4.4 °F -0.8 °F 1024.6 in NW 11.1 mph 11.1 mph 69 % 0.0 in 0.0 W/m2 CLR
00:32 4.4 °F -1.2 °F 1024.6 in Calm     67 % 0.0 in 0.0 W/m2 CLR
00:37 4.4 °F -1.6 °F 1024.6 in Calm     65 % 0.0 in 0.0 W/m2 CLR
00:42 4.4 °F -1.3 °F 1024.6 in Calm     66 % 0.0 in 0.0 W/m2 CLR
00:52 4.4 °F -1.6 °F 1024.3 in Calm     65 % 0.0 in 0.0 W/m2 CLR
00:57 4.4 °F -1.6 °F 1024.3 in Calm     65 % 0.0 in 0.0 W/m2 CLR
01:02 4.4 °F -1.6 °F 1024.3 in Calm     65 % 0.0 in 0.0 W/m2 CLR
01:07 4.4 °F -1.6 °F 1024.3 in Calm     65 % 0.0 in 0.0 W/m2 CLR
01:12 3.9 °F -1.9 °F 1024.3 in Calm     66 % 0.0 in 0.0 W/m2 CLR
01:17 3.9 °F -1.9 °F 1023.9 in Calm     66 % 0.0 in 0.0 W/m2 CLR
01:22 4.4 °F -1.6 °F 1023.9 in NW 5.6 mph   65 % 0.0 in 0.0 W/m2 CLR
01:32 4.4 °F -1.3 °F 1023.9 in NW 14.8 mph 14.8 mph 66 % 0.0 in 0.0 W/m2 CLR
01:37 4.4 °F -1.6 °F 1023.6 in NW 9.3 mph 9.3 mph 65 % 0.0 in 0.0 W/m2 CLR
01:47 4.4 °F -1.6 °F 1023.6 in NNW 8.0 mph 8.0 mph 65 % 0.0 in 0.0 W/m2 CLR
01:52 3.9 °F -1.9 °F 1023.6 in NNW 13.0 mph 13.0 mph 66 % 0.0 in 0.0 W/m2 CLR
01:57 3.9 °F -1.9 °F 1023.6 in NNW 11.3 mph 11.3 mph 66 % 0.0 in 0.0 W/m2 CLR
02:02 3.3 °F -2.2 °F 1023.6 in NNW 11.3 mph 11.3 mph 67 % 0.0 in 0.0 W/m2 CLR
02:07 3.3 °F -2.2 °F 1023.6 in NNW 13.0 mph 13.0 mph 67 % 0.0 in 0.0 W/m2 CLR
02:12 2.8 °F -2.6 °F 1023.6 in NW 11.1 mph 11.1 mph 68 % 0.0 in 0.0 W/m2 CLR
02:17 2.8 °F -2.6 °F 1023.6 in NNW 14.8 mph 14.8 mph 68 % 0.0 in 0.0 W/m2 CLR
02:27 2.8 °F -2.6 °F 1023.6 in NNW 9.3 mph 9.3 mph 68 % 0.0 in 0.0 W/m2 CLR
02:32 2.2 °F -3.1 °F 1023.2 in NW 8.0 mph 8.0 mph 68 % 0.0 in 0.0 W/m2 CLR
02:37 2.2 °F -3.1 °F 1023.2 in NW 11.1 mph 11.1 mph 68 % 0.0 in 0.0 W/m2 CLR
02:42 2.2 °F -2.9 °F 1023.2 in NW 13.0 mph 13.0 mph 69 % 0.0 in 0.0 W/m2 CLR
02:47 2.2 °F -3.1 °F 1023.6 in NNW 7.4 mph 7.4 mph 68 % 0.0 in 0.0 W/m2 CLR
02:52 2.2 °F -2.9 °F 1023.2 in Calm     69 % 0.0 in 0.0 W/m2 CLR
02:57 1.7 °F -3.2 °F 1023.2 in WNW 11.1 mph 11.1 mph 70 % 0.0 in 0.0 W/m2 CLR
03:02 1.7 °F -3.4 °F 1023.2 in WNW 13.0 mph 13.0 mph 69 % 0.0 in 0.0 W/m2 CLR
03:07 1.7 °F -3.6 °F 1023.2 in WNW 9.3 mph 9.3 mph 68 % 0.0 in 0.0 W/m2 CLR
03:12 1.7 °F -3.6 °F 1022.9 in WNW 7.4 mph 7.4 mph 68 % 0.0 in 0.0 W/m2 CLR
03:22 1.7 °F -3.4 °F 1022.9 in Calm     69 % 0.0 in 0.0 W/m2 CLR
03:27 1.7 °F -2.8 °F 1022.9 in Calm     72 % 0.0 in 0.0 W/m2 CLR
03:32 1.1 °F -3.2 °F 1022.9 in Calm     73 % 0.0 in 0.0 W/m2 CLR
03:37 1.1 °F -3.0 °F 1022.9 in Calm     74 % 0.0 in 0.0 W/m2 CLR
03:42 1.1 °F -2.8 °F 1022.9 in Calm     75 % 0.0 in 0.0 W/m2 CLR
03:47 1.1 °F -2.8 °F 1022.6 in Calm     75 % 0.0 in 0.0 W/m2 CLR
03:52 1.1 °F -2.8 °F 1022.6 in Calm     75 % 0.0 in 0.0 W/m2 CLR
04:02 1.1 °F -3.0 °F 1022.6 in Calm     74 % 0.0 in 0.0 W/m2 CLR
04:07 1.1 °F -3.0 °F 1022.6 in Calm     74 % 0.0 in 0.0 W/m2 CLR
04:13 1.1 °F -2.8 °F 1022.6 in Calm     75 % 0.0 in 0.0 W/m2 CLR
04:20 1.1 °F -2.7 °F 1022.6 in Calm     76 % 0.0 in 0.0 W/m2 CLR
04:22 1.1 °F -2.5 °F 1022.6 in Calm     77 % 0.0 in 0.0 W/m2 CLR
04:23 1.1 °F -2.7 °F 1022.6 in Calm     76 % 0.0 in 0.0 W/m2 CLR
04:29 0.6 °F -2.8 °F 1022.2 in Calm     78 % 0.0 in 0.0 W/m2 CLR
04:32 0.6 °F -2.8 °F 1022.2 in Calm     78 % 0.0 in 0.0 W/m2 CLR
04:37 0.6 °F -2.8 °F 1022.2 in Calm     78 % 0.0 in 0.0 W/m2 CLR
04:42 0.6 °F -2.7 °F 1022.2 in Calm     79 % 0.0 in 0.0 W/m2 CLR
04:47 0.6 °F -2.8 °F 1022.2 in Calm     78 % 0.0 in 0.0 W/m2 CLR
04:52 0.6 °F -2.7 °F 1022.2 in Calm     79 % 0.0 in 0.0 W/m2 CLR
04:53 0.6 °F -2.7 °F 1022.2 in Calm     79 % 0.0 in 0.0 W/m2 CLR
04:55 0.6 °F -2.7 °F 1022.2 in Calm     79 % 0.0 in 0.0 W/m2 CLR
05:00 0.6 °F -2.7 °F 1022.2 in Calm     79 % 0.0 in 0.0 W/m2 CLR
05:06 0.6 °F -2.5 °F 1022.2 in Calm     80 % 0.0 in 0.0 W/m2 CLR
05:11 0.6 °F -2.5 °F 1021.9 in Calm     80 % 0.0 in 0.0 W/m2 CLR
05:16 0.0 °F -3.1 °F 1022.2 in Calm     80 % 0.0 in 0.0 W/m2 CLR
05:17 0.0 °F -3.1 °F 1022.2 in Calm     80 % 0.0 in 0.0 W/m2 CLR
05:22 0.0 °F -2.9 °F 1022.2 in Calm     81 % 0.0 in 0.0 W/m2 CLR
05:23 0.0 °F -2.9 °F 1022.2 in Calm     81 % 0.0 in 0.0 W/m2 CLR
05:27 0.0 °F -2.9 °F 1021.9 in Calm     81 % 0.0 in 0.0 W/m2 CLR
05:32 0.0 °F -3.1 °F 1021.9 in Calm     80 % 0.0 in 0.0 W/m2 CLR
05:34 0.0 °F -3.1 °F 1021.9 in Calm     80 % 0.0 in 0.0 W/m2 CLR
05:42 0.6 °F -2.2 °F 1021.9 in Calm     82 % 0.0 in 0.0 W/m2 CLR
05:47 0.6 °F -2.2 °F 1021.6 in Calm     82 % 0.0 in 0.0 W/m2 CLR
06:02 0.6 °F -1.8 °F 1021.9 in Calm     84 % 0.0 in 0.0 W/m2 CLR
06:07 0.6 °F -1.8 °F 1021.6 in Calm     84 % 0.0 in 0.0 W/m2 CLR
06:10 0.6 °F -2.0 °F 1021.6 in Calm     83 % 0.0 in 0.0 W/m2 CLR
06:13 0.6 °F -2.0 °F 1021.6 in Calm     83 % 0.0 in 0.0 W/m2 CLR
06:18 1.1 °F -1.4 °F 1021.6 in Calm     83 % 0.0 in 0.0 W/m2 CLR
06:23 1.1 °F -1.3 °F 1021.6 in Calm     84 % 0.0 in 0.0 W/m2 CLR
06:45 2.2 °F -0.2 °F 1021.6 in WSW 12.9 mph 12.9 mph 84 % 0.0 in 0.0 W/m2 CLR
06:50 2.2 °F -0.4 °F 1021.6 in West 13.0 mph 13.0 mph 83 % 0.0 in 0.0 W/m2 CLR
06:53 2.2 °F -0.6 °F 1021.6 in West 11.1 mph 11.1 mph 82 % 0.0 in 0.0 W/m2 CLR
07:05 3.3 °F -0.3 °F 1021.6 in Calm     77 % 0.0 in 0.0 W/m2 CLR
07:10 3.3 °F -0.7 °F 1021.6 in Calm     75 % 0.0 in 0.0 W/m2 CLR
07:15 3.3 °F -0.3 °F 1021.6 in Calm     77 % 0.0 in 0.0 W/m2 CLR
07:20 3.9 °F 0.4 °F 1021.6 in Calm     78 % 0.0 in 0.0 W/m2 CLR
07:25 3.9 °F 0.2 °F 1021.6 in Calm     77 % 0.0 in 0.0 W/m2 CLR
07:34 3.9 °F 0.4 °F 1021.6 in Calm     78 % 0.0 in 0.0 W/m2 CLR
07:39 3.9 °F 0.6 °F 1021.6 in Calm     79 % 0.0 in 0.0 W/m2 CLR
07:44 3.9 °F 0.8 °F 1021.6 in Calm     80 % 0.0 in 0.0 W/m2 CLR
07:59 4.4 °F 1.4 °F 1021.2 in Calm     81 % 0.0 in 0.0 W/m2 CLR
08:05 4.4 °F 1.4 °F 1021.2 in Calm     81 % 0.0 in 0.0 W/m2 CLR
08:10 4.4 °F 1.4 °F 1021.6 in Calm     81 % 0.0 in 0.0 W/m2 OVC
08:13 4.4 °F 1.6 °F 1021.6 in Calm     82 % 0.0 in 0.0 W/m2 OVC
08:15 4.4 °F 1.6 °F 1021.6 in Calm     82 % 0.0 in 0.0 W/m2 OVC
08:20 4.4 °F 1.4 °F 1021.6 in Calm     81 % 0.0 in 0.0 W/m2 OVC
08:25 4.4 °F 1.4 °F 1021.6 in Calm     81 % 0.0 in 0.0 W/m2 OVC
08:30 4.4 °F 1.3 °F 1021.6 in Calm     80 % 0.0 in 0.0 W/m2 OVC
08:35 5.0 °F 2.0 °F 1021.6 in Calm     81 % 0.0 in 0.0 W/m2 OVC
08:40 5.0 °F 2.0 °F 1021.6 in Calm     81 % 0.0 in 5.0 W/m2 OVC
08:45 5.0 °F 2.2 °F 1021.6 in Calm     82 % 0.0 in 7.0 W/m2 BKN
08:47 5.0 °F 2.0 °F 1021.6 in Calm     81 % 0.0 in 9.0 W/m2 BKN
08:52 5.0 °F 2.0 °F 1021.6 in Calm     81 % 0.0 in 9.0 W/m2 BKN
08:53 5.0 °F 2.0 °F 1021.6 in Calm     81 % 0.0 in 9.0 W/m2 BKN
09:12 5.6 °F 2.7 °F 1021.6 in Calm     82 % 0.0 in 12.0 W/m2 BKN
09:17 6.1 °F 3.3 °F 1021.6 in Calm     82 % 0.0 in 14.0 W/m2 BKN
09:22 6.1 °F 3.1 °F 1021.6 in Calm     81 % 0.0 in 14.0 W/m2 BKN
09:24 6.1 °F 3.1 °F 1021.6 in Calm     81 % 0.0 in 14.0 W/m2 BKN
09:27 6.1 °F 3.1 °F 1021.9 in Calm     81 % 0.0 in 14.0 W/m2 BKN
09:29 6.1 °F 3.3 °F 1021.9 in Calm     82 % 0.0 in 14.0 W/m2 BKN
09:34 6.1 °F 2.9 °F 1021.9 in Calm     80 % 0.0 in 21.0 W/m2 BKN
09:39 6.1 °F 2.9 °F 1021.9 in Calm     80 % 0.0 in 26.0 W/m2 BKN
09:40 6.1 °F 2.9 °F 1021.9 in Calm     80 % 0.0 in 26.0 W/m2 BKN
09:44 6.7 °F 3.6 °F 1021.9 in Calm     81 % 0.0 in 37.0 W/m2 BKN
09:49 6.7 °F 3.4 °F 1021.6 in Calm     80 % 0.0 in 54.0 W/m2 BKN
09:54 6.7 °F 3.4 °F 1021.9 in Calm     80 % 0.0 in 37.0 W/m2 BKN
09:59 7.2 °F 4.2 °F 1021.6 in Calm     81 % 0.0 in 44.0 W/m2 BKN
10:03 7.2 °F 4.0 °F 1021.6 in Calm     80 % 0.0 in 49.0 W/m2 BKN
10:08 7.2 °F 4.0 °F 1021.6 in Calm     80 % 0.0 in 93.0 W/m2 SCT
10:13 7.8 °F 4.6 °F 1021.6 in Calm     80 % 0.0 in 70.0 W/m2 FEW
10:18 7.8 °F 4.6 °F 1021.9 in Calm     80 % 0.0 in 72.0 W/m2 FEW
10:19 7.8 °F 4.6 °F 1021.9 in Calm     80 % 0.0 in 65.0 W/m2 FEW
10:23 7.8 °F 4.6 °F 1021.9 in Calm     80 % 0.0 in 70.0 W/m2 FEW
10:28 7.8 °F 4.6 °F 1021.9 in Calm     80 % 0.0 in 72.0 W/m2 FEW
10:30 7.8 °F 4.6 °F 1021.6 in Calm     80 % 0.0 in 84.0 W/m2 FEW
10:35 8.3 °F 5.1 °F 1021.9 in Calm     80 % 0.0 in 63.0 W/m2 FEW
10:40 8.3 °F 4.9 °F 1021.9 in Calm     79 % 0.0 in 72.0 W/m2 FEW
10:43 8.3 °F 4.9 °F 1021.9 in Calm     79 % 0.0 in 76.0 W/m2 FEW
10:45 8.3 °F 4.9 °F 1021.9 in Calm     79 % 0.0 in 81.0 W/m2 FEW
10:50 8.3 °F 5.1 °F 1021.9 in Calm     80 % 0.0 in 91.0 W/m2 FEW
10:55 8.9 °F 5.6 °F 1021.9 in Calm   1.8 mph 80 % 0.0 in 79.0 W/m2 FEW
11:00 8.9 °F 5.3 °F 1021.9 in North 11.1 mph   78 % 0.0 in 83.0 W/m2 FEW
11:05 8.9 °F 4.9 °F 1021.9 in NNW 11.1 mph 11.1 mph 76 % 0.0 in 69.0 W/m2 FEW
11:11 9.4 °F 5.1 °F 1021.9 in NNW 13.0 mph 13.0 mph 74 % 0.0 in 56.0 W/m2 FEW
11:16 9.4 °F 4.8 °F 1021.9 in Calm     73 % 0.0 in 65.0 W/m2 SCT
11:21 9.4 °F 4.7 °F 1021.9 in Calm     72 % 0.0 in 90.0 W/m2 FEW
11:26 10.0 °F 5.2 °F 1021.6 in Calm     72 % 0.0 in 128.0 W/m2 CLR
11:31 10.0 °F 5.0 °F 1021.9 in Calm     71 % 0.0 in 155.0 W/m2 CLR
11:36 10.6 °F 5.5 °F 1021.6 in Calm     71 % 0.0 in 113.0 W/m2 CLR
11:41 11.1 °F 5.8 °F 1021.6 in Calm     70 % 0.0 in 163.0 W/m2 CLR
11:46 11.7 °F 6.4 °F 1021.6 in Calm   0.2 mph 70 % 0.0 in 121.0 W/m2 CLR
11:47 11.7 °F 6.4 °F 1021.6 in NNE 1.6 mph 1.6 mph 70 % 0.0 in 125.0 W/m2 CLR
11:49 12.2 °F 6.7 °F 1021.6 in North 14.8 mph 14.8 mph 69 % 0.0 in 135.0 W/m2 CLR
11:52 12.2 °F 6.9 °F 1021.6 in North 14.8 mph 14.8 mph 70 % 0.0 in 148.0 W/m2 CLR
11:57 12.8 °F 7.2 °F 1021.6 in North 22.5 mph 22.5 mph 69 % 0.0 in 137.0 W/m2 CLR
12:02 12.8 °F 7.2 °F 1021.2 in North 20.4 mph 20.4 mph 69 % 0.0 in 142.0 W/m2 CLR
12:03 12.8 °F 7.2 °F 1021.2 in North 18.5 mph 18.5 mph 69 % 0.0 in 139.0 W/m2 CLR
12:08 12.8 °F 7.2 °F 1021.2 in North 14.8 mph 14.8 mph 69 % 0.0 in 213.0 W/m2 CLR
12:13 12.8 °F 7.2 °F 1021.2 in NNW 20.4 mph 20.4 mph 69 % 0.0 in 248.0 W/m2 CLR
12:18 12.8 °F 7.2 °F 1021.2 in North 19.3 mph 19.3 mph 69 % 0.0 in 199.0 W/m2 CLR
12:19 12.8 °F 7.2 °F 1021.2 in North 19.3 mph 19.3 mph 69 % 0.0 in 193.0 W/m2 CLR
12:20 12.8 °F 7.2 °F 1021.2 in North 18.5 mph 18.5 mph 69 % 0.0 in 193.0 W/m2 CLR
12:25 12.8 °F 7.2 °F 1020.9 in NNW 17.7 mph 17.7 mph 69 % 0.0 in 204.0 W/m2 CLR
12:30 12.8 °F 7.2 °F 1020.9 in NNW 17.7 mph 17.7 mph 69 % 0.0 in 202.0 W/m2 CLR
12:35 12.8 °F 7.2 °F 1020.9 in NNW 18.5 mph 18.5 mph 69 % 0.0 in 200.0 W/m2 CLR
12:40 12.8 °F 7.2 °F 1020.9 in NNW 20.4 mph 20.4 mph 69 % 0.0 in 171.0 W/m2 CLR
12:44 12.8 °F 7.2 °F 1020.5 in NNW 18.5 mph 18.5 mph 69 % 0.0 in 156.0 W/m2 CLR
12:49 12.8 °F 7.2 °F 1020.5 in NNW 16.7 mph 16.7 mph 69 % 0.0 in 246.0 W/m2 CLR
12:54 12.8 °F 7.2 °F 1020.5 in NNW 9.7 mph 10.5 mph 69 % 0.0 in 230.0 W/m2 CLR
12:59 13.3 °F 7.6 °F 1020.5 in NW 14.8 mph 14.8 mph 68 % 0.0 in 246.0 W/m2 CLR
13:04 13.3 °F 7.6 °F 1020.2 in North 14.5 mph 14.5 mph 68 % 0.0 in 237.0 W/m2 CLR
13:07 13.3 °F 7.6 °F 1020.2 in North 14.5 mph 14.5 mph 68 % 0.0 in 230.0 W/m2 CLR
13:12 13.3 °F 7.6 °F 1019.9 in NNW 13.0 mph 13.0 mph 68 % 0.0 in 221.0 W/m2 CLR
13:17 13.3 °F 7.6 °F 1019.9 in North 18.5 mph 18.5 mph 68 % 0.0 in 223.0 W/m2 CLR
13:20 13.3 °F 7.6 °F 1019.5 in North 18.5 mph 18.5 mph 68 % 0.0 in 225.0 W/m2 CLR
13:22 13.3 °F 7.3 °F 1019.5 in NNE 11.1 mph 11.1 mph 67 % 0.0 in 230.0 W/m2 CLR
13:27 13.9 °F 8.1 °F 1019.5 in NNW 14.5 mph 14.5 mph 68 % 0.0 in 239.0 W/m2 CLR
13:32 13.9 °F 8.1 °F 1019.5 in North 16.7 mph 16.7 mph 68 % 0.0 in 213.0 W/m2 CLR
13:33 13.9 °F 8.1 °F 1019.5 in North 16.7 mph 16.7 mph 68 % 0.0 in 213.0 W/m2 CLR
13:37 13.9 °F 7.8 °F 1019.5 in North 11.3 mph 11.3 mph 67 % 0.0 in 185.0 W/m2 CLR
13:42 13.9 °F 7.8 °F 1019.2 in NNE 13.0 mph 13.0 mph 67 % 0.0 in 199.0 W/m2 CLR
13:47 13.3 °F 7.3 °F 1019.2 in North 16.7 mph 16.7 mph 67 % 0.0 in 248.0 W/m2 CLR
13:52 13.9 °F 8.1 °F 1018.8 in NNW 13.0 mph 13.0 mph 68 % 0.0 in 499.0 W/m2 CLR
13:57 13.9 °F 7.8 °F 1018.8 in North 14.8 mph 14.8 mph 67 % 0.0 in 295.0 W/m2 CLR
14:00 14.4 °F 8.4 °F 1018.8 in NNW 7.4 mph 7.4 mph 67 % 0.0 in 385.0 W/m2 CLR
14:02 13.9 °F 7.8 °F 1018.8 in NNE 11.3 mph 11.3 mph 67 % 0.0 in 202.0 W/m2 CLR
14:07 13.9 °F 7.8 °F 1018.8 in North 14.8 mph 14.8 mph 67 % 0.0 in 188.0 W/m2 CLR
14:12 13.9 °F 7.8 °F 1018.8 in NW 9.7 mph 9.7 mph 67 % 0.0 in 353.0 W/m2 CLR
14:14 13.9 °F 7.8 °F 1018.8 in NW 11.1 mph 11.1 mph 67 % 0.0 in 264.0 W/m2 CLR
14:18 13.9 °F 7.8 °F 1018.8 in North 14.8 mph 14.8 mph 67 % 0.0 in 237.0 W/m2 CLR
14:23 14.4 °F 8.2 °F 1018.8 in NNW 14.8 mph 14.8 mph 66 % 0.0 in 364.0 W/m2 CLR
14:27 14.4 °F 8.2 °F 1018.5 in North 16.7 mph 16.7 mph 66 % 0.0 in 299.0 W/m2 CLR
14:28 14.4 °F 8.2 °F 1018.5 in North 16.7 mph 16.7 mph 66 % 0.0 in 299.0 W/m2 CLR
14:33 13.9 °F 7.6 °F 1018.5 in NNW 11.1 mph 11.1 mph 66 % 0.0 in 302.0 W/m2 CLR
14:38 13.9 °F 7.6 °F 1018.5 in NNW 14.5 mph 14.5 mph 66 % 0.0 in 339.0 W/m2 CLR
14:40 13.9 °F 7.6 °F 1018.5 in NNW 16.7 mph 16.7 mph 66 % 0.0 in 373.0 W/m2 CLR
14:42 13.9 °F 7.6 °F 1018.2 in NNW 5.6 mph   66 % 0.0 in 387.0 W/m2 CLR
14:47 14.4 °F 7.9 °F 1018.2 in NNW 13.0 mph 13.0 mph 65 % 0.0 in 264.0 W/m2 CLR
14:52 14.4 °F 7.9 °F 1017.8 in NW 7.4 mph 8.7 mph 65 % 0.0 in 251.0 W/m2 CLR
14:57 14.4 °F 7.9 °F 1017.8 in Calm     65 % 0.0 in 135.0 W/m2 CLR
15:02 14.4 °F 7.9 °F 1017.8 in Calm     65 % 0.0 in 334.0 W/m2 CLR
15:07 14.4 °F 7.9 °F 1017.8 in Calm     65 % 0.0 in 255.0 W/m2 CLR
15:10 14.4 °F 7.7 °F 1017.8 in Calm     64 % 0.0 in 279.0 W/m2 CLR
15:15 15.0 °F 8.2 °F 1017.5 in Calm     64 % 0.0 in 209.0 W/m2 CLR
15:20 14.4 °F 7.7 °F 1017.5 in Calm     64 % 0.0 in 237.0 W/m2 CLR
15:25 14.4 °F 7.9 °F 1017.5 in Calm     65 % 0.0 in 195.0 W/m2 CLR
15:30 14.4 °F 7.7 °F 1017.5 in Calm     64 % 0.0 in 211.0 W/m2 CLR
15:35 14.4 °F 7.5 °F 1017.5 in Calm     63 % 0.0 in 193.0 W/m2 CLR
15:40 14.4 °F 7.7 °F 1017.5 in Calm     64 % 0.0 in 200.0 W/m2 CLR
15:45 14.4 °F 7.5 °F 1017.5 in Calm     63 % 0.0 in 137.0 W/m2 CLR
15:46 14.4 °F 7.5 °F 1017.5 in Calm     63 % 0.0 in 139.0 W/m2 CLR
15:52 14.4 °F 7.5 °F 1017.2 in Calm     63 % 0.0 in 169.0 W/m2 CLR
15:57 13.9 °F 6.9 °F 1017.2 in Calm     63 % 0.0 in 163.0 W/m2 CLR
16:02 13.9 °F 6.9 °F 1017.2 in Calm     63 % 0.0 in 156.0 W/m2 CLR
16:04 13.9 °F 6.9 °F 1017.2 in Calm     63 % 0.0 in 151.0 W/m2 CLR
16:07 13.9 °F 6.9 °F 1017.2 in Calm     63 % 0.0 in 149.0 W/m2 CLR
16:12 13.3 °F 6.2 °F 1017.2 in Calm     62 % 0.0 in 137.0 W/m2 CLR
16:17 13.3 °F 6.4 °F 1017.2 in Calm     63 % 0.0 in 120.0 W/m2 CLR
16:19 13.3 °F 6.4 °F 1017.2 in Calm     63 % 0.0 in 118.0 W/m2 CLR
16:22 12.8 °F 5.4 °F 1016.8 in NNW 1.9 mph   61 % 0.0 in 114.0 W/m2 CLR
16:27 12.8 °F 5.4 °F 1016.8 in Calm     61 % 0.0 in 95.0 W/m2 CLR
16:32 12.2 °F 4.7 °F 1016.8 in Calm     60 % 0.0 in 63.0 W/m2 SCT
16:37 12.2 °F 4.9 °F 1016.8 in Calm     61 % 0.0 in 51.0 W/m2 SCT
16:42 11.7 °F 4.4 °F 1016.8 in Calm     61 % 0.0 in 54.0 W/m2 SCT
16:44 11.7 °F 4.6 °F 1016.8 in Calm     62 % 0.0 in 54.0 W/m2 SCT
16:49 11.7 °F 4.6 °F 1016.5 in Calm     62 % 0.0 in 46.0 W/m2 SCT
16:54 11.7 °F 4.6 °F 1016.5 in Calm     62 % 0.0 in 35.0 W/m2 BKN
16:58 11.7 °F 4.4 °F 1016.5 in Calm     61 % 0.0 in 30.0 W/m2 BKN
17:03 11.7 °F 4.4 °F 1016.5 in Calm     61 % 0.0 in 21.0 W/m2 BKN
17:08 11.7 °F 4.4 °F 1016.5 in WNW 8.0 mph 8.0 mph 61 % 0.0 in 14.0 W/m2 BKN
17:09 11.7 °F 4.4 °F 1016.5 in NW 7.4 mph 7.4 mph 61 % 0.0 in 14.0 W/m2 BKN
17:13 11.7 °F 4.4 °F 1016.5 in Calm     61 % 0.0 in 12.0 W/m2 BKN
17:15 11.7 °F 4.4 °F 1016.5 in Calm     61 % 0.0 in 11.0 W/m2 BKN
17:20 11.1 °F 4.1 °F 1016.5 in Calm     62 % 0.0 in 7.0 W/m2 BKN
17:25 11.1 °F 4.1 °F 1016.5 in Calm     62 % 0.0 in 0.0 W/m2 OVC
17:30 11.1 °F 4.3 °F 1016.5 in Calm     63 % 0.0 in 0.0 W/m2 OVC
17:34 11.1 °F 4.3 °F 1016.5 in Calm     63 % 0.0 in 0.0 W/m2 OVC
17:35 11.1 °F 4.3 °F 1016.5 in Calm     63 % 0.0 in 0.0 W/m2 OVC
17:40 11.1 °F 4.3 °F 1016.5 in NW 3.7 mph 3.7 mph 63 % 0.0 in 0.0 W/m2 OVC
17:44 11.1 °F 4.1 °F 1016.1 in NW 5.6 mph 5.6 mph 62 % 0.0 in 0.0 W/m2 CLR
17:45 11.1 °F 4.1 °F 1016.1 in NW 4.8 mph 4.8 mph 62 % 0.0 in 0.0 W/m2 CLR
17:50 10.6 °F 3.6 °F 1016.1 in Calm     62 % 0.0 in 0.0 W/m2 CLR
17:55 10.6 °F 3.6 °F 1016.1 in Calm     62 % 0.0 in 0.0 W/m2 CLR
17:59 10.6 °F 3.8 °F 1016.1 in Calm     63 % 0.0 in 0.0 W/m2 CLR
18:04 10.6 °F 3.8 °F 1016.1 in Calm     63 % 0.0 in 0.0 W/m2 CLR
18:05 10.6 °F 3.8 °F 1016.1 in Calm     63 % 0.0 in 0.0 W/m2 CLR
18:09 10.6 °F 4.0 °F 1016.1 in Calm     64 % 0.0 in 0.0 W/m2 CLR
18:14 10.6 °F 4.0 °F 1016.1 in Calm     64 % 0.0 in 0.0 W/m2 CLR
18:19 10.6 °F 4.0 °F 1016.1 in Calm     64 % 0.0 in 0.0 W/m2 CLR
18:24 10.0 °F 3.5 °F 1016.1 in Calm     64 % 0.0 in 0.0 W/m2 CLR
18:29 10.0 °F 3.5 °F 1015.8 in NW 11.1 mph 11.1 mph 64 % 0.0 in 0.0 W/m2 CLR
18:34 10.0 °F 3.5 °F 1016.1 in NNW 5.6 mph 5.6 mph 64 % 0.0 in 0.0 W/m2 CLR
18:37 10.0 °F 3.3 °F 1016.1 in NNW 5.6 mph 5.6 mph 63 % 0.0 in 0.0 W/m2 CLR
18:42 10.0 °F 3.3 °F 1016.1 in NW 5.6 mph 5.6 mph 63 % 0.0 in 0.0 W/m2 CLR
18:47 10.0 °F 3.3 °F 1016.1 in WNW 6.4 mph 6.4 mph 63 % 0.0 in 0.0 W/m2 CLR
18:49 10.0 °F 3.3 °F 1016.1 in NNW 7.4 mph 7.4 mph 63 % 0.0 in 0.0 W/m2 CLR
18:52 10.0 °F 3.3 °F 1016.1 in NW 3.7 mph 3.7 mph 63 % 0.0 in 0.0 W/m2 CLR
18:57 10.0 °F 3.3 °F 1016.1 in NNW 3.7 mph 3.7 mph 63 % 0.0 in 0.0 W/m2 CLR
19:00 10.0 °F 3.3 °F 1016.1 in NW 3.7 mph 3.7 mph 63 % 0.0 in 0.0 W/m2 CLR
19:02 10.0 °F 3.3 °F 1016.1 in Calm   1.3 mph 63 % 0.0 in 0.0 W/m2 CLR
19:08 10.6 °F 3.8 °F 1016.1 in Calm     63 % 0.0 in 0.0 W/m2 CLR
19:13 10.6 °F 3.8 °F 1016.1 in Calm     63 % 0.0 in 0.0 W/m2 CLR
19:14 10.6 °F 3.8 °F 1016.1 in Calm     63 % 0.0 in 0.0 W/m2 CLR
19:18 10.6 °F 3.8 °F 1015.8 in NW 3.7 mph   63 % 0.0 in 0.0 W/m2 CLR
19:19 10.6 °F 3.8 °F 1015.8 in Calm     63 % 0.0 in 0.0 W/m2 CLR
19:23 10.6 °F 3.8 °F 1015.8 in Calm     63 % 0.0 in 0.0 W/m2 CLR
19:27 10.0 °F 3.5 °F 1015.8 in Calm     64 % 0.0 in 0.0 W/m2 CLR
19:28 10.0 °F 3.5 °F 1015.8 in Calm     64 % 0.0 in 0.0 W/m2 CLR
19:33 10.0 °F 3.5 °F 1015.8 in Calm     64 % 0.0 in 0.0 W/m2 CLR
19:38 10.0 °F 3.7 °F 1015.8 in Calm     65 % 0.0 in 0.0 W/m2 CLR
19:43 10.0 °F 3.9 °F 1015.8 in Calm     66 % 0.0 in 0.0 W/m2 CLR
19:48 10.0 °F 3.9 °F 1015.8 in Calm     66 % 0.0 in 0.0 W/m2 CLR
19:53 10.0 °F 3.9 °F 1015.8 in Calm     66 % 0.0 in 0.0 W/m2 CLR
19:58 10.0 °F 3.9 °F 1015.8 in Calm     66 % 0.0 in 0.0 W/m2 CLR
20:03 10.0 °F 3.9 °F 1015.8 in Calm     66 % 0.0 in 0.0 W/m2 CLR
20:08 10.0 °F 3.9 °F 1015.8 in Calm     66 % 0.0 in 0.0 W/m2 CLR
20:13 10.0 °F 4.2 °F 1015.8 in Calm     67 % 0.0 in 0.0 W/m2 CLR
20:18 10.0 °F 4.2 °F 1015.8 in Calm     67 % 0.0 in 0.0 W/m2 CLR
20:20 10.0 °F 4.2 °F 1015.8 in Calm     67 % 0.0 in 0.0 W/m2 CLR
20:23 10.0 °F 4.3 °F 1015.8 in Calm     68 % 0.0 in 0.0 W/m2 CLR
20:28 9.4 °F 3.8 °F 1015.8 in Calm     68 % 0.0 in 0.0 W/m2 CLR
20:33 9.4 °F 3.8 °F 1015.8 in Calm     68 % 0.0 in 0.0 W/m2 CLR
20:38 9.4 °F 3.8 °F 1015.8 in Calm     68 % 0.0 in 0.0 W/m2 CLR
20:43 9.4 °F 4.1 °F 1015.8 in Calm     69 % 0.0 in 0.0 W/m2 CLR
20:48 8.9 °F 3.7 °F 1015.5 in Calm     70 % 0.0 in 0.0 W/m2 CLR
20:53 8.9 °F 3.5 °F 1015.5 in Calm     69 % 0.0 in 0.0 W/m2 CLR
20:58 8.9 °F 3.5 °F 1015.5 in Calm     69 % 0.0 in 0.0 W/m2 CLR
21:03 8.9 °F 3.7 °F 1015.1 in Calm     70 % 0.0 in 0.0 W/m2 CLR
21:08 8.9 °F 3.7 °F 1015.1 in Calm     70 % 0.0 in 0.0 W/m2 CLR
21:13 8.9 °F 3.9 °F 1015.1 in NW 5.6 mph 5.6 mph 71 % 0.0 in 0.0 W/m2 CLR
21:18 8.3 °F 3.2 °F 1015.1 in NNW 5.6 mph 5.6 mph 70 % 0.0 in 0.0 W/m2 CLR
21:20 8.3 °F 3.2 °F 1015.1 in North 1.9 mph   70 % 0.0 in 0.0 W/m2 CLR
21:25 8.3 °F 3.0 °F 1015.1 in Calm     69 % 0.0 in 0.0 W/m2 CLR
21:27 8.3 °F 3.0 °F 1014.8 in NW 5.6 mph 5.6 mph 69 % 0.0 in 0.0 W/m2 CLR
21:32 8.3 °F 2.8 °F 1014.8 in NW 5.6 mph 5.6 mph 68 % 0.0 in 0.0 W/m2 CLR
21:33 8.3 °F 2.8 °F 1014.8 in NW 7.4 mph 7.4 mph 68 % 0.0 in 0.0 W/m2 CLR
21:38 8.3 °F 2.6 °F 1014.8 in NW 5.6 mph 5.6 mph 67 % 0.0 in 0.0 W/m2 CLR
21:43 8.3 °F 2.6 °F 1014.4 in WNW 5.6 mph 5.6 mph 67 % 0.0 in 0.0 W/m2 CLR
21:48 7.8 °F 2.1 °F 1014.4 in NW 7.4 mph 7.4 mph 67 % 0.0 in 0.0 W/m2 CLR
21:53 7.8 °F 1.8 °F 1014.4 in Calm     66 % 0.0 in 0.0 W/m2 CLR
21:58 7.8 °F 2.1 °F 1014.4 in Calm     67 % 0.0 in 0.0 W/m2 CLR
21:59 7.8 °F 2.1 °F 1014.4 in Calm     67 % 0.0 in 0.0 W/m2 CLR
22:05 7.8 °F 2.1 °F 1014.1 in Calm     67 % 0.0 in 0.0 W/m2 CLR
22:10 7.8 °F 2.4 °F 1014.1 in Calm     69 % 0.0 in 0.0 W/m2 CLR
22:15 7.8 °F 2.7 °F 1014.1 in Calm     70 % 0.0 in 0.0 W/m2 CLR
22:20 7.2 °F 2.3 °F 1013.8 in NW 11.3 mph 11.3 mph 71 % 0.0 in 0.0 W/m2 CLR
22:25 7.2 °F 1.9 °F 1013.8 in WNW 7.4 mph 7.4 mph 69 % 0.0 in 0.0 W/m2 CLR
22:30 7.2 °F 1.7 °F 1013.4 in NW 5.6 mph 5.6 mph 68 % 0.0 in 0.0 W/m2 CLR
22:35 7.2 °F 1.5 °F 1013.4 in Calm     67 % 0.0 in 0.0 W/m2 CLR
22:40 6.7 °F 0.9 °F 1013.4 in Calm     67 % 0.0 in 0.0 W/m2 CLR
22:43 6.7 °F 1.2 °F 1013.4 in Calm     68 % 0.0 in 0.0 W/m2 CLR
22:48 6.7 °F 1.4 °F 1013.4 in Calm     69 % 0.0 in 0.0 W/m2 CLR
22:53 6.7 °F 1.4 °F 1013.4 in Calm     69 % 0.0 in 0.0 W/m2 CLR
22:58 6.1 °F 1.1 °F 1013.4 in Calm     70 % 0.0 in 0.0 W/m2 CLR
23:04 6.1 °F 1.2 °F 1013.4 in Calm     71 % 0.0 in 0.0 W/m2 CLR
23:09 6.1 °F 1.6 °F 1013.4 in WNW 1.6 mph 1.9 mph 73 % 0.0 in 0.0 W/m2 CLR
23:14 6.7 °F 2.0 °F 1013.4 in NW 9.7 mph 9.7 mph 72 % 0.0 in 0.0 W/m2 CLR
23:19 6.7 °F 1.4 °F 1013.1 in WNW 11.1 mph 11.1 mph 69 % 0.0 in 0.0 W/m2 CLR
23:24 6.7 °F 0.9 °F 1013.1 in WNW 9.7 mph 9.7 mph 67 % 0.0 in 0.0 W/m2 CLR
23:29 6.7 °F 0.9 °F 1013.1 in NW 6.4 mph 6.4 mph 67 % 0.0 in 0.0 W/m2 CLR
23:34 6.7 °F 0.8 °F 1013.1 in NW 5.6 mph 5.6 mph 66 % 0.0 in 0.0 W/m2 CLR
23:39 6.7 °F 0.8 °F 1013.1 in NW 7.4 mph 7.4 mph 66 % 0.0 in 0.0 W/m2 CLR
23:44 6.7 °F 0.8 °F 1013.1 in NW 7.4 mph 7.4 mph 66 % 0.0 in 0.0 W/m2 CLR
23:49 6.7 °F 0.8 °F 1013.1 in NW 5.6 mph 5.6 mph 66 % 0.0 in 0.0 W/m2 CLR
23:54 6.7 °F 0.8 °F 1013.1 in West 5.6 mph   66 % 0.0 in 0.0 W/m2 CLR
23:59 6.7 °F 0.6 °F 1012.8 in Calm     65 % 0.0 in 0.0 W/m2 CLR
Lo Temps de Massalio
Compliments of Weather Underground - 1.25 mb